createdAt,value
2019-01-16T00:00:16.338Z,12.93
2019-01-16T00:02:47.323Z,12.40
2019-01-16T00:05:24.230Z,11.70
2019-01-16T00:08:03.920Z,11.97
2019-01-16T00:10:50.875Z,16.13
2019-01-16T00:13:24.320Z,14.20
2019-01-16T00:16:07.346Z,15.07
2019-01-16T00:18:43.883Z,13.70
2019-01-16T00:21:26.759Z,13.60
2019-01-16T00:24:13.968Z,13.30
2019-01-16T00:26:47.894Z,13.00
2019-01-16T00:29:36.388Z,13.07
2019-01-16T00:32:07.343Z,13.67
2019-01-16T00:34:54.619Z,13.37
2019-01-16T00:37:34.640Z,12.40
2019-01-16T00:40:24.737Z,14.13
2019-01-16T00:42:55.611Z,13.30
2019-01-16T00:45:29.469Z,13.00
2019-01-16T00:48:06.295Z,14.00
2019-01-16T00:50:46.063Z,12.67
2019-01-16T00:53:17.003Z,13.80
2019-01-16T00:55:53.870Z,12.67
2019-01-16T00:58:40.878Z,12.23
2019-01-16T01:01:11.791Z,11.50
2019-01-16T01:03:59.083Z,11.60
2019-01-16T01:06:45.821Z,11.53
2019-01-16T01:09:31.366Z,11.13
2019-01-16T01:12:02.316Z,11.47
2019-01-16T01:14:36.159Z,10.70
2019-01-16T01:17:15.838Z,13.63
2019-01-16T01:19:46.703Z,10.90
2019-01-16T01:22:33.925Z,10.93
2019-01-16T01:25:05.070Z,11.13
2019-01-16T01:27:41.515Z,11.67
2019-01-16T01:30:22.829Z,10.20
2019-01-16T01:32:53.720Z,9.63
2019-01-16T01:35:42.494Z,10.57
2019-01-16T01:38:13.374Z,9.30
2019-01-16T01:41:02.096Z,10.63
2019-01-16T01:43:32.978Z,10.03
2019-01-16T01:46:06.483Z,10.40
2019-01-16T01:48:53.644Z,10.80
2019-01-16T01:51:36.515Z,10.23
2019-01-16T01:54:10.243Z,10.47
2019-01-16T01:56:41.139Z,10.93
2019-01-16T01:59:15.292Z,11.50
2019-01-16T02:01:55.138Z,11.07
2019-01-16T02:04:26.050Z,11.03
2019-01-16T02:07:05.766Z,12.17
2019-01-16T02:09:42.802Z,9.93
2019-01-16T02:12:29.653Z,11.13
2019-01-16T02:15:12.671Z,10.33
2019-01-16T02:17:52.303Z,12.30
2019-01-16T02:20:32.324Z,12.20
2019-01-16T02:23:12.045Z,11.70
2019-01-16T02:25:49.049Z,11.20
2019-01-16T02:28:19.931Z,10.53
2019-01-16T02:30:50.901Z,12.70
2019-01-16T02:33:37.795Z,12.63
2019-01-16T02:36:25.004Z,11.03
2019-01-16T02:39:01.669Z,11.63
2019-01-16T02:41:32.551Z,10.10
2019-01-16T02:44:18.362Z,9.80
2019-01-16T02:47:05.272Z,10.90
2019-01-16T02:49:41.871Z,10.70
2019-01-16T02:52:12.830Z,10.37
2019-01-16T02:54:46.147Z,10.30
2019-01-16T02:57:22.592Z,13.60
2019-01-16T02:59:53.484Z,12.37
2019-01-16T03:02:24.363Z,9.90
2019-01-16T03:04:55.240Z,8.60
2019-01-16T03:07:26.195Z,8.83
2019-01-16T03:10:05.943Z,9.07
2019-01-16T03:12:36.848Z,9.43
2019-01-16T03:15:12.893Z,8.83
2019-01-16T03:17:46.667Z,8.90
2019-01-16T03:20:33.288Z,7.97
2019-01-16T03:23:06.919Z,9.10
2019-01-16T03:25:43.882Z,9.63
2019-01-16T03:28:14.767Z,10.80
2019-01-16T03:30:51.484Z,8.57
2019-01-16T03:33:40.276Z,9.17
2019-01-16T03:36:25.700Z,8.40
2019-01-16T03:38:56.605Z,8.00
2019-01-16T03:41:36.666Z,8.80
2019-01-16T03:44:10.463Z,8.30
2019-01-16T03:46:47.412Z,9.13
2019-01-16T03:49:18.288Z,9.70
2019-01-16T03:51:49.143Z,9.13
2019-01-16T03:54:28.827Z,8.63
2019-01-16T03:57:16.023Z,8.93
2019-01-16T03:59:46.919Z,7.23
2019-01-16T04:02:17.877Z,9.07
2019-01-16T04:04:51.712Z,8.10
2019-01-16T04:07:37.687Z,8.77
2019-01-16T04:10:14.146Z,8.60
2019-01-16T04:13:00.232Z,9.47
2019-01-16T04:15:33.738Z,9.50
2019-01-16T04:18:07.335Z,10.83
2019-01-16T04:20:41.179Z,10.43
2019-01-16T04:23:20.719Z,11.70
2019-01-16T04:26:09.543Z,9.33
2019-01-16T04:28:40.431Z,10.43
2019-01-16T04:31:29.056Z,8.33
2019-01-16T04:34:02.649Z,8.70
2019-01-16T04:36:36.251Z,9.73
2019-01-16T04:39:09.032Z,7.87
2019-01-16T04:41:39.932Z,7.90
2019-01-16T04:44:26.619Z,8.93
2019-01-16T04:46:59.960Z,7.90
2019-01-16T04:49:30.851Z,7.87
2019-01-16T04:52:16.850Z,9.57
2019-01-16T04:54:50.467Z,7.73
2019-01-16T04:57:27.137Z,7.93
2019-01-16T05:00:06.617Z,7.57
2019-01-16T05:02:46.402Z,6.67
2019-01-16T05:05:17.292Z,7.13
2019-01-16T05:07:50.832Z,7.47
2019-01-16T05:10:37.833Z,6.97
2019-01-16T05:13:08.696Z,7.53
2019-01-16T05:15:39.584Z,7.40
2019-01-16T05:18:16.265Z,9.50
2019-01-16T05:20:49.901Z,7.27
2019-01-16T05:23:23.599Z,8.23
2019-01-16T05:25:54.476Z,7.53
2019-01-16T05:28:31.315Z,7.90
2019-01-16T05:31:07.883Z,8.67
2019-01-16T05:33:41.488Z,9.20
2019-01-16T05:36:12.375Z,9.47
2019-01-16T05:38:49.175Z,9.20
2019-01-16T05:41:20.049Z,8.90
2019-01-16T05:43:56.879Z,8.83
2019-01-16T05:46:36.590Z,9.63
2019-01-16T05:49:07.458Z,9.23
2019-01-16T05:51:38.373Z,11.00
2019-01-16T05:54:27.316Z,9.97
2019-01-16T05:56:58.279Z,12.13
2019-01-16T05:59:31.870Z,8.33
2019-01-16T06:02:18.527Z,10.10
2019-01-16T06:05:05.376Z,11.43
2019-01-16T06:07:36.283Z,7.10
2019-01-16T06:10:12.766Z,9.43
2019-01-16T06:12:58.767Z,9.53
2019-01-16T06:15:47.834Z,9.47
2019-01-16T06:18:21.619Z,7.37
2019-01-16T06:21:12.169Z,8.97
2019-01-16T06:23:49.184Z,11.60
2019-01-16T06:26:29.147Z,11.50
2019-01-16T06:29:15.132Z,7.70
2019-01-16T06:31:55.083Z,8.13
2019-01-16T06:34:38.079Z,11.00
2019-01-16T06:37:14.651Z,7.30
2019-01-16T06:39:45.526Z,8.33
2019-01-16T06:42:32.559Z,7.50
2019-01-16T06:45:19.540Z,9.47
2019-01-16T06:48:06.197Z,12.87
2019-01-16T06:50:37.092Z,11.83
2019-01-16T06:53:10.394Z,7.77
2019-01-16T06:55:53.098Z,8.50
2019-01-16T06:58:32.836Z,8.30
2019-01-16T07:01:12.746Z,7.43
2019-01-16T07:04:01.543Z,12.40
2019-01-16T07:06:35.302Z,11.20
2019-01-16T07:09:14.722Z,9.10
2019-01-16T07:11:48.324Z,9.70
2019-01-16T07:14:21.947Z,9.47
2019-01-16T07:16:55.902Z,8.40
2019-01-16T07:19:35.906Z,7.93
2019-01-16T07:22:16.030Z,9.43
2019-01-16T07:24:55.638Z,7.03
2019-01-16T07:27:26.579Z,8.30
2019-01-16T07:30:06.450Z,6.70
2019-01-16T07:32:40.240Z,6.70
2019-01-16T07:35:14.178Z,7.20
2019-01-16T07:37:45.070Z,9.70
2019-01-16T07:40:28.185Z,11.00
2019-01-16T07:43:01.543Z,9.43
2019-01-16T07:45:48.694Z,10.37
2019-01-16T07:48:25.599Z,9.17
2019-01-16T07:51:08.746Z,8.87
2019-01-16T07:53:45.342Z,5.67
2019-01-16T07:56:21.658Z,7.47
2019-01-16T07:58:58.264Z,7.50
2019-01-16T08:01:34.863Z,9.37
2019-01-16T08:04:11.871Z,6.67
2019-01-16T08:06:48.466Z,8.67
2019-01-16T08:09:19.354Z,6.63
2019-01-16T08:11:59.328Z,7.10
2019-01-16T08:14:45.363Z,7.20
2019-01-16T08:17:18.930Z,8.77
2019-01-16T08:19:52.815Z,7.90
2019-01-16T08:22:23.683Z,8.53
2019-01-16T08:25:12.696Z,6.80
2019-01-16T08:27:43.651Z,7.17
2019-01-16T08:30:17.555Z,6.33
2019-01-16T08:32:56.904Z,7.47
2019-01-16T08:35:33.920Z,6.80
2019-01-16T08:38:04.822Z,7.60
2019-01-16T08:40:41.648Z,6.03
2019-01-16T08:43:18.186Z,5.80
2019-01-16T08:45:51.728Z,6.20
2019-01-16T08:48:22.608Z,6.47
2019-01-16T08:51:08.395Z,5.17
2019-01-16T08:53:41.857Z,5.80
2019-01-16T08:56:28.867Z,7.30
2019-01-16T08:59:11.582Z,6.03
2019-01-16T09:01:48.027Z,5.13
2019-01-16T09:04:27.929Z,5.47
2019-01-16T09:07:14.011Z,6.00
2019-01-16T09:10:02.762Z,5.40
2019-01-16T09:12:33.667Z,5.10
2019-01-16T09:15:16.870Z,9.77
2019-01-16T09:17:47.754Z,5.23
2019-01-16T09:20:21.493Z,5.27
2019-01-16T09:23:06.999Z,5.37
2019-01-16T09:25:53.884Z,5.03
2019-01-16T09:28:31.180Z,5.33
2019-01-16T09:31:04.928Z,6.37
2019-01-16T09:33:52.213Z,5.60
2019-01-16T09:36:39.465Z,7.63
2019-01-16T09:39:10.860Z,7.30
2019-01-16T09:41:41.735Z,5.60
2019-01-16T09:44:12.663Z,7.80
2019-01-16T09:46:46.303Z,7.40
2019-01-16T09:49:19.620Z,10.57
2019-01-16T09:51:53.328Z,7.10
2019-01-16T09:54:36.204Z,6.60
2019-01-16T09:57:18.855Z,7.67
2019-01-16T09:59:49.730Z,7.50
2019-01-16T10:02:32.191Z,7.53
2019-01-16T10:05:03.058Z,13.40
2019-01-16T10:07:34.056Z,9.57
2019-01-16T10:10:22.088Z,12.27
2019-01-16T10:12:58.483Z,11.13
2019-01-16T10:15:29.452Z,12.73
2019-01-16T10:18:00.331Z,14.07
2019-01-16T10:20:34.255Z,12.23
2019-01-16T10:23:17.420Z,12.90
2019-01-16T10:25:48.346Z,10.43
2019-01-16T10:28:19.254Z,12.87
2019-01-16T10:30:50.200Z,13.23
2019-01-16T10:33:29.496Z,11.97
2019-01-16T10:36:02.782Z,12.13
2019-01-16T10:38:36.366Z,14.97
2019-01-16T10:41:19.180Z,12.20
2019-01-16T10:43:59.185Z,13.23
2019-01-16T10:46:35.979Z,16.60
2019-01-16T10:49:07.034Z,13.00
2019-01-16T10:51:52.850Z,18.47
2019-01-16T10:54:32.841Z,12.67
2019-01-16T10:57:18.861Z,15.23
2019-01-16T10:59:55.544Z,15.17
2019-01-16T11:02:26.437Z,13.73
2019-01-16T11:05:13.452Z,13.50
2019-01-16T11:07:44.451Z,13.00
2019-01-16T11:10:15.484Z,16.40
2019-01-16T11:12:55.037Z,11.70
2019-01-16T11:15:35.087Z,12.43
2019-01-16T11:18:18.151Z,12.27
2019-01-16T11:20:57.903Z,12.70
2019-01-16T11:23:44.862Z,12.50
2019-01-16T11:26:33.655Z,13.10
2019-01-16T11:29:04.536Z,12.90
2019-01-16T11:31:35.450Z,12.70
2019-01-16T11:34:22.865Z,10.13
2019-01-16T11:36:53.756Z,10.87
2019-01-16T11:39:24.678Z,9.73
2019-01-16T11:42:04.368Z,12.77
2019-01-16T11:44:35.262Z,14.90
2019-01-16T11:47:06.395Z,11.63
2019-01-16T11:49:40.042Z,14.20
2019-01-16T11:52:26.778Z,10.97
2019-01-16T11:55:14.059Z,13.73
2019-01-16T11:57:50.654Z,12.03
2019-01-16T12:00:24.266Z,12.63
2019-01-16T12:02:55.149Z,9.70
2019-01-16T12:05:31.791Z,16.37
2019-01-16T12:08:08.420Z,10.43
2019-01-16T12:10:39.386Z,12.37
2019-01-16T12:13:10.327Z,11.47
2019-01-16T12:15:41.206Z,12.23
2019-01-16T12:18:30.117Z,14.67
2019-01-16T12:21:12.790Z,12.53
2019-01-16T12:23:55.627Z,15.00
2019-01-16T12:26:41.143Z,19.47
2019-01-16T12:29:23.724Z,14.30
2019-01-16T12:31:54.652Z,14.00
2019-01-16T12:34:41.517Z,15.43
2019-01-16T12:37:12.406Z,11.00
2019-01-16T12:39:43.279Z,12.97
2019-01-16T12:42:20.168Z,12.07
2019-01-16T12:45:02.936Z,17.43
2019-01-16T12:47:36.631Z,12.97
2019-01-16T12:50:22.807Z,13.07
2019-01-16T12:52:54.231Z,12.33
2019-01-16T12:55:25.363Z,14.13
2019-01-16T12:58:01.816Z,13.00
2019-01-16T13:00:35.429Z,13.53
2019-01-16T13:03:06.484Z,15.00
2019-01-16T13:05:43.299Z,11.50
2019-01-16T13:08:16.970Z,17.30
2019-01-16T13:11:02.734Z,12.97
2019-01-16T13:13:39.615Z,15.53
2019-01-16T13:16:16.247Z,12.10
2019-01-16T13:18:59.227Z,17.07
2019-01-16T13:21:30.120Z,15.07
2019-01-16T13:24:12.938Z,17.70
2019-01-16T13:26:46.262Z,12.53
2019-01-16T13:29:22.787Z,12.07
2019-01-16T13:31:56.463Z,15.00
2019-01-16T13:34:27.350Z,13.83
2019-01-16T13:36:58.219Z,18.23
2019-01-16T13:39:31.524Z,11.80
2019-01-16T13:42:02.574Z,10.10
2019-01-16T13:44:39.526Z,12.60
2019-01-16T13:47:19.531Z,12.83
2019-01-16T13:49:53.226Z,15.30
2019-01-16T13:52:40.266Z,11.67
2019-01-16T13:55:11.411Z,13.03
2019-01-16T13:57:54.159Z,12.47
2019-01-16T14:00:25.191Z,10.90
2019-01-16T14:02:56.099Z,20.20
2019-01-16T14:05:36.104Z,13.20
2019-01-16T14:08:10.079Z,11.60
2019-01-16T14:10:53.256Z,15.53
2019-01-16T14:13:41.732Z,13.73
2019-01-16T14:16:28.844Z,13.07
2019-01-16T14:18:59.755Z,22.70
2019-01-16T14:21:30.646Z,13.93
2019-01-16T14:24:01.563Z,13.43
2019-01-16T14:26:47.491Z,16.37
2019-01-16T14:29:21.157Z,11.17
2019-01-16T14:32:03.574Z,15.83
2019-01-16T14:34:46.432Z,12.70
2019-01-16T14:37:20.243Z,11.53
2019-01-16T14:39:56.769Z,15.10
2019-01-16T14:42:33.665Z,14.23
2019-01-16T14:45:04.627Z,13.90
2019-01-16T14:47:51.338Z,18.00
2019-01-16T14:50:34.214Z,13.40
2019-01-16T14:53:21.488Z,20.33
2019-01-16T14:55:58.111Z,11.03
2019-01-16T14:58:29.035Z,16.27
2019-01-16T15:01:16.318Z,23.63
2019-01-16T15:03:56.089Z,23.40
2019-01-16T15:06:26.967Z,15.50
2019-01-16T15:08:57.874Z,10.83
2019-01-16T15:11:34.507Z,14.73
2019-01-16T15:14:14.483Z,14.77
2019-01-16T15:16:45.447Z,13.23
2019-01-16T15:19:16.349Z,13.93
2019-01-16T15:21:47.319Z,14.30
2019-01-16T15:24:27.211Z,13.40
2019-01-16T15:27:14.314Z,17.70
2019-01-16T15:29:54.128Z,13.57
2019-01-16T15:32:43.142Z,12.90
2019-01-16T15:35:19.943Z,15.70
2019-01-16T15:37:59.655Z,14.63
2019-01-16T15:40:30.625Z,14.00
2019-01-16T15:43:01.499Z,14.07
2019-01-16T15:45:44.293Z,14.57
2019-01-16T15:48:31.192Z,15.23
2019-01-16T15:51:18.541Z,11.93
2019-01-16T15:53:49.407Z,16.00
2019-01-16T15:56:20.293Z,16.93
2019-01-16T15:58:51.226Z,23.33
2019-01-16T16:01:22.262Z,20.60
2019-01-16T16:03:53.227Z,18.93
2019-01-16T16:06:29.924Z,11.28
2019-01-16T16:09:17.132Z,12.63
2019-01-16T16:11:56.638Z,12.80
2019-01-16T16:14:36.287Z,17.33
2019-01-16T16:17:19.300Z,9.07
2019-01-16T16:20:05.352Z,11.60
2019-01-16T16:22:36.316Z,13.73
2019-01-16T16:25:24.530Z,11.27
2019-01-16T16:28:11.830Z,8.23
2019-01-16T16:30:57.711Z,7.17
2019-01-16T16:33:46.756Z,7.97
2019-01-16T16:36:33.960Z,6.33
2019-01-16T16:39:11.219Z,11.80
2019-01-16T16:41:42.282Z,8.20
2019-01-16T16:44:18.626Z,15.00
2019-01-16T16:46:49.524Z,13.23
2019-01-16T16:49:29.192Z,12.10
2019-01-16T16:52:00.066Z,8.10
2019-01-16T16:54:47.303Z,11.07
2019-01-16T16:57:18.201Z,7.97
2019-01-16T17:00:00.723Z,8.90
2019-01-16T17:02:31.767Z,12.70
2019-01-16T17:05:02.624Z,7.17
2019-01-16T17:07:33.627Z,10.57
2019-01-16T17:10:20.708Z,11.13
2019-01-16T17:13:03.461Z,8.00
2019-01-16T17:15:34.482Z,9.50
2019-01-16T17:18:23.427Z,10.90
2019-01-16T17:20:54.472Z,10.13
2019-01-16T17:23:37.198Z,10.10
2019-01-16T17:26:13.953Z,9.87
2019-01-16T17:28:47.543Z,11.37
2019-01-16T17:31:30.153Z,14.40
2019-01-16T17:34:01.018Z,10.70
2019-01-16T17:36:37.658Z,7.90
2019-01-16T17:39:24.827Z,11.17
2019-01-16T17:41:58.538Z,8.43
2019-01-16T17:44:29.481Z,13.07
2019-01-16T17:47:00.350Z,8.97
2019-01-16T17:49:39.726Z,11.53
2019-01-16T17:52:19.596Z,12.63
2019-01-16T17:54:59.393Z,13.70
2019-01-16T17:57:36.335Z,12.30
2019-01-16T18:00:19.379Z,9.67
2019-01-16T18:02:55.968Z,7.97
2019-01-16T18:05:35.988Z,12.90
2019-01-16T18:08:09.569Z,8.07
2019-01-16T18:10:46.226Z,8.30
2019-01-16T18:13:23.189Z,8.70
2019-01-16T18:15:59.517Z,12.03
2019-01-16T18:18:42.370Z,8.67
2019-01-16T18:21:13.242Z,7.30
2019-01-16T18:23:55.898Z,8.83
2019-01-16T18:26:42.552Z,10.20
2019-01-16T18:29:22.712Z,10.80
2019-01-16T18:31:56.149Z,12.23
2019-01-16T18:34:27.177Z,10.07
2019-01-16T18:37:06.938Z,14.30
2019-01-16T18:39:40.688Z,9.70
2019-01-16T18:42:20.775Z,10.30
2019-01-16T18:44:51.674Z,7.17
2019-01-16T18:47:25.100Z,5.87
2019-01-16T18:50:12.340Z,7.73
2019-01-16T18:52:43.277Z,10.70
2019-01-16T18:55:30.615Z,10.83
2019-01-16T18:58:01.525Z,9.40
2019-01-16T19:00:50.366Z,9.23
2019-01-16T19:03:37.480Z,7.03
2019-01-16T19:06:08.476Z,10.67
2019-01-16T19:08:55.901Z,34.00
2019-01-16T19:11:26.886Z,22.90
2019-01-16T19:13:57.951Z,23.60
2019-01-16T19:16:34.681Z,13.67
2019-01-16T19:19:14.647Z,12.97
2019-01-16T19:21:45.639Z,8.93
2019-01-16T19:24:16.653Z,12.53
2019-01-16T19:26:47.619Z,6.77
2019-01-16T19:29:34.549Z,11.13
2019-01-16T19:32:05.577Z,10.93
2019-01-16T19:34:45.566Z,9.40
2019-01-16T19:37:16.531Z,6.63
2019-01-16T19:40:03.797Z,11.60
2019-01-16T19:42:43.658Z,10.83
2019-01-16T19:45:32.434Z,9.80
2019-01-16T19:48:06.459Z,10.43
2019-01-16T19:50:52.220Z,13.30
2019-01-16T19:53:28.764Z,8.90
2019-01-16T19:56:17.696Z,10.17
2019-01-16T19:58:48.631Z,9.83
2019-01-16T20:01:19.590Z,12.93
2019-01-16T20:04:02.620Z,14.10
2019-01-16T20:06:33.572Z,7.43
2019-01-16T20:09:04.617Z,11.57
2019-01-16T20:11:38.091Z,11.67
2019-01-16T20:14:25.147Z,8.70
2019-01-16T20:16:58.824Z,8.57
2019-01-16T20:19:29.779Z,13.90
2019-01-16T20:22:03.454Z,16.30
2019-01-16T20:24:34.355Z,10.47
2019-01-16T20:27:05.311Z,10.73
2019-01-16T20:29:48.129Z,11.20
2019-01-16T20:32:22.088Z,13.10
2019-01-16T20:34:58.829Z,15.13
2019-01-16T20:37:35.616Z,10.77
2019-01-16T20:40:21.452Z,11.17
2019-01-16T20:43:08.447Z,11.73
2019-01-16T20:45:51.642Z,20.30
2019-01-16T20:48:22.612Z,15.20
2019-01-16T20:50:59.110Z,11.67
2019-01-16T20:53:30.221Z,11.20
2019-01-16T20:56:01.157Z,15.23
2019-01-16T20:58:34.877Z,12.80
2019-01-16T21:01:24.188Z,15.57
2019-01-16T21:04:10.299Z,16.53
2019-01-16T21:06:41.221Z,12.80
2019-01-16T21:09:20.922Z,13.50
2019-01-16T21:11:51.816Z,15.23
2019-01-16T21:14:39.282Z,13.13
2019-01-16T21:17:29.354Z,15.80
2019-01-16T21:20:06.044Z,15.60
2019-01-16T21:22:42.552Z,12.53
2019-01-16T21:25:19.137Z,19.20
2019-01-16T21:27:56.158Z,19.20
2019-01-16T21:30:42.246Z,15.60
2019-01-16T21:33:19.008Z,19.07
2019-01-16T21:36:04.715Z,20.80
2019-01-16T21:38:38.392Z,23.07
2019-01-16T21:41:12.267Z,16.00
2019-01-16T21:43:45.906Z,13.53
2019-01-16T21:46:22.591Z,19.67
2019-01-16T21:49:09.581Z,20.30
2019-01-16T21:51:56.795Z,12.53
2019-01-16T21:54:42.367Z,12.23
2019-01-16T21:57:29.145Z,12.97
2019-01-16T22:00:00.264Z,16.83
2019-01-16T22:02:47.389Z,16.60
2019-01-16T22:05:30.322Z,13.40
2019-01-16T22:08:07.182Z,13.47
2019-01-16T22:10:54.395Z,12.30
2019-01-16T22:13:28.165Z,11.10
2019-01-16T22:16:02.040Z,11.93
2019-01-16T22:18:35.872Z,15.77
2019-01-16T22:21:21.650Z,18.30
2019-01-16T22:24:07.610Z,12.30
2019-01-16T22:26:54.533Z,22.90
2019-01-16T22:29:28.143Z,16.53
2019-01-16T22:31:59.078Z,13.40
2019-01-16T22:34:46.350Z,13.23
2019-01-16T22:37:17.254Z,13.10
2019-01-16T22:39:53.799Z,19.00
2019-01-16T22:42:42.712Z,16.27
2019-01-16T22:45:23.749Z,11.17
2019-01-16T22:48:06.432Z,15.70
2019-01-16T22:50:46.087Z,11.63
2019-01-16T22:53:20.107Z,12.10
2019-01-16T22:55:51.004Z,15.13
2019-01-16T22:58:37.079Z,13.47
2019-01-16T23:01:11.063Z,14.47
2019-01-16T23:03:47.928Z,11.13
2019-01-16T23:06:34.926Z,10.93
2019-01-16T23:09:11.328Z,15.23
2019-01-16T23:11:42.218Z,14.53
2019-01-16T23:14:25.173Z,15.13
2019-01-16T23:17:01.822Z,10.00
2019-01-16T23:19:35.692Z,11.10
2019-01-16T23:22:06.635Z,17.63
2019-01-16T23:24:37.539Z,17.00
2019-01-16T23:27:11.596Z,13.60
2019-01-16T23:29:50.301Z,13.67
2019-01-16T23:32:20.892Z,15.87
2019-01-16T23:34:51.791Z,19.23
2019-01-16T23:37:38.523Z,15.60
2019-01-16T23:40:16.831Z,10.60
2019-01-16T23:42:50.520Z,15.40
2019-01-16T23:45:24.215Z,12.30
2019-01-16T23:47:55.091Z,16.70
2019-01-16T23:50:42.225Z,16.43
2019-01-16T23:53:22.184Z,13.87
2019-01-16T23:55:58.834Z,21.37
2019-01-16T23:58:29.688Z,15.17
